sensor_id;sensor_type;location;lat;lon;timestamp;P1;durP1;ratioP1;P2;durP2;ratioP2
33840;SDS011;20142;28.494;-16.312;2023-08-30T00:00:28;38.20;;;6.32;;
33840;SDS011;20142;28.494;-16.312;2023-08-30T00:05:29;27.83;;;4.90;;
33840;SDS011;20142;28.494;-16.312;2023-08-30T00:10:31;36.47;;;5.72;;
33840;SDS011;20142;28.494;-16.312;2023-08-30T00:15:33;36.60;;;6.72;;
33840;SDS011;20142;28.494;-16.312;2023-08-30T00:20:34;41.00;;;6.43;;
33840;SDS011;20142;28.494;-16.312;2023-08-30T00:25:36;28.13;;;5.65;;
33840;SDS011;20142;28.494;-16.312;2023-08-30T00:30:38;43.70;;;5.93;;
33840;SDS011;20142;28.494;-16.312;2023-08-30T00:35:39;40.58;;;6.80;;
33840;SDS011;20142;28.494;-16.312;2023-08-30T00:40:41;33.90;;;5.35;;
33840;SDS011;20142;28.494;-16.312;2023-08-30T00:45:43;34.28;;;5.20;;
33840;SDS011;20142;28.494;-16.312;2023-08-30T00:50:45;33.53;;;6.03;;
33840;SDS011;20142;28.494;-16.312;2023-08-30T00:55:47;34.30;;;6.35;;
33840;SDS011;20142;28.494;-16.312;2023-08-30T01:00:49;33.15;;;5.72;;
33840;SDS011;20142;28.494;-16.312;2023-08-30T01:05:51;29.92;;;5.35;;
33840;SDS011;20142;28.494;-16.312;2023-08-30T01:10:53;30.55;;;5.50;;
33840;SDS011;20142;28.494;-16.312;2023-08-30T01:16:10;38.50;;;6.35;;
33840;SDS011;20142;28.494;-16.312;2023-08-30T01:21:14;30.13;;;5.90;;
33840;SDS011;20142;28.494;-16.312;2023-08-30T01:32:12;33.00;;;5.95;;
33840;SDS011;20142;28.494;-16.312;2023-08-30T01:37:14;34.15;;;6.10;;
33840;SDS011;20142;28.494;-16.312;2023-08-30T01:42:17;30.02;;;5.45;;
33840;SDS011;20142;28.494;-16.312;2023-08-30T01:47:25;37.97;;;6.63;;
33840;SDS011;20142;28.494;-16.312;2023-08-30T01:52:28;35.25;;;6.57;;
33840;SDS011;20142;28.494;-16.312;2023-08-30T01:57:31;30.05;;;5.40;;
33840;SDS011;20142;28.494;-16.312;2023-08-30T02:02:33;30.50;;;5.55;;
33840;SDS011;20142;28.494;-16.312;2023-08-30T02:07:37;31.80;;;5.43;;
33840;SDS011;20142;28.494;-16.312;2023-08-30T02:13:04;36.80;;;6.35;;
33840;SDS011;20142;28.494;-16.312;2023-08-30T02:18:06;24.77;;;4.82;;
33840;SDS011;20142;28.494;-16.312;2023-08-30T02:23:09;29.65;;;5.60;;
33840;SDS011;20142;28.494;-16.312;2023-08-30T02:28:11;40.08;;;6.03;;
33840;SDS011;20142;28.494;-16.312;2023-08-30T02:33:13;38.03;;;5.63;;
33840;SDS011;20142;28.494;-16.312;2023-08-30T02:38:14;38.92;;;6.47;;
33840;SDS011;20142;28.494;-16.312;2023-08-30T02:43:16;32.50;;;6.07;;
33840;SDS011;20142;28.494;-16.312;2023-08-30T02:48:18;25.60;;;4.93;;
33840;SDS011;20142;28.494;-16.312;2023-08-30T02:53:20;29.88;;;5.10;;
33840;SDS011;20142;28.494;-16.312;2023-08-30T02:58:22;28.90;;;5.32;;
33840;SDS011;20142;28.494;-16.312;2023-08-30T03:03:24;24.80;;;4.65;;
33840;SDS011;20142;28.494;-16.312;2023-08-30T03:08:26;31.30;;;4.60;;
33840;SDS011;20142;28.494;-16.312;2023-08-30T03:13:27;27.60;;;5.20;;
33840;SDS011;20142;28.494;-16.312;2023-08-30T03:18:29;30.88;;;5.15;;
33840;SDS011;20142;28.494;-16.312;2023-08-30T03:23:31;37.63;;;4.97;;
33840;SDS011;20142;28.494;-16.312;2023-08-30T03:28:33;28.95;;;4.68;;
33840;SDS011;20142;28.494;-16.312;2023-08-30T03:33:34;40.58;;;5.22;;
33840;SDS011;20142;28.494;-16.312;2023-08-30T03:38:37;33.78;;;5.03;;
33840;SDS011;20142;28.494;-16.312;2023-08-30T03:43:39;35.83;;;4.82;;
33840;SDS011;20142;28.494;-16.312;2023-08-30T03:48:41;28.67;;;5.03;;
33840;SDS011;20142;28.494;-16.312;2023-08-30T03:53:42;32.72;;;5.28;;
33840;SDS011;20142;28.494;-16.312;2023-08-30T03:58:44;37.05;;;5.30;;
33840;SDS011;20142;28.494;-16.312;2023-08-30T04:03:46;29.27;;;4.72;;
33840;SDS011;20142;28.494;-16.312;2023-08-30T04:08:48;36.85;;;4.82;;
33840;SDS011;20142;28.494;-16.312;2023-08-30T04:13:50;21.85;;;4.18;;
33840;SDS011;20142;28.494;-16.312;2023-08-30T04:18:53;23.77;;;4.55;;
33840;SDS011;20142;28.494;-16.312;2023-08-30T04:23:55;22.13;;;3.65;;
33840;SDS011;20142;28.494;-16.312;2023-08-30T04:28:57;25.55;;;3.95;;
33840;SDS011;20142;28.494;-16.312;2023-08-30T04:33:58;25.67;;;3.97;;
33840;SDS011;20142;28.494;-16.312;2023-08-30T04:39:00;32.20;;;4.35;;
33840;SDS011;20142;28.494;-16.312;2023-08-30T04:44:02;24.92;;;4.00;;
33840;SDS011;20142;28.494;-16.312;2023-08-30T04:49:03;34.28;;;4.57;;
33840;SDS011;20142;28.494;-16.312;2023-08-30T04:54:05;31.55;;;4.75;;
33840;SDS011;20142;28.494;-16.312;2023-08-30T04:59:07;18.38;;;3.83;;
33840;SDS011;20142;28.494;-16.312;2023-08-30T05:04:09;30.13;;;4.72;;
33840;SDS011;20142;28.494;-16.312;2023-08-30T05:09:11;21.55;;;3.72;;
33840;SDS011;20142;28.494;-16.312;2023-08-30T05:14:13;29.17;;;4.65;;
33840;SDS011;20142;28.494;-16.312;2023-08-30T05:19:14;29.40;;;4.25;;
33840;SDS011;20142;28.494;-16.312;2023-08-30T05:24:17;34.28;;;4.70;;
33840;SDS011;20142;28.494;-16.312;2023-08-30T05:29:19;23.00;;;4.07;;
33840;SDS011;20142;28.494;-16.312;2023-08-30T05:34:21;21.02;;;3.75;;
33840;SDS011;20142;28.494;-16.312;2023-08-30T05:39:24;23.83;;;3.97;;
33840;SDS011;20142;28.494;-16.312;2023-08-30T05:44:26;21.73;;;3.53;;
33840;SDS011;20142;28.494;-16.312;2023-08-30T05:49:28;18.20;;;3.47;;
33840;SDS011;20142;28.494;-16.312;2023-08-30T05:54:29;23.02;;;4.43;;
33840;SDS011;20142;28.494;-16.312;2023-08-30T05:59:32;29.95;;;4.45;;
33840;SDS011;20142;28.494;-16.312;2023-08-30T06:04:35;24.80;;;4.80;;
33840;SDS011;20142;28.494;-16.312;2023-08-30T06:09:37;24.60;;;4.18;;
33840;SDS011;20142;28.494;-16.312;2023-08-30T06:14:39;30.10;;;4.75;;
33840;SDS011;20142;28.494;-16.312;2023-08-30T06:19:41;26.05;;;3.75;;
33840;SDS011;20142;28.494;-16.312;2023-08-30T06:24:42;23.17;;;3.92;;
33840;SDS011;20142;28.494;-16.312;2023-08-30T06:29:44;23.80;;;4.18;;
33840;SDS011;20142;28.494;-16.312;2023-08-30T06:34:46;26.08;;;4.25;;
33840;SDS011;20142;28.494;-16.312;2023-08-30T06:39:47;25.20;;;4.00;;
33840;SDS011;20142;28.494;-16.312;2023-08-30T06:44:49;22.27;;;4.00;;
33840;SDS011;20142;28.494;-16.312;2023-08-30T06:49:51;22.90;;;3.80;;
33840;SDS011;20142;28.494;-16.312;2023-08-30T06:54:52;23.52;;;4.22;;
33840;SDS011;20142;28.494;-16.312;2023-08-30T06:59:54;22.77;;;3.95;;
33840;SDS011;20142;28.494;-16.312;2023-08-30T07:04:56;29.55;;;4.03;;
33840;SDS011;20142;28.494;-16.312;2023-08-30T07:09:58;30.00;;;4.10;;
33840;SDS011;20142;28.494;-16.312;2023-08-30T07:14:59;21.77;;;3.72;;
33840;SDS011;20142;28.494;-16.312;2023-08-30T07:20:01;21.52;;;3.92;;
33840;SDS011;20142;28.494;-16.312;2023-08-30T07:25:05;26.13;;;4.00;;
33840;SDS011;20142;28.494;-16.312;2023-08-30T07:30:09;24.83;;;3.47;;
33840;SDS011;20142;28.494;-16.312;2023-08-30T07:35:11;19.63;;;3.83;;
33840;SDS011;20142;28.494;-16.312;2023-08-30T07:40:13;25.00;;;3.50;;
33840;SDS011;20142;28.494;-16.312;2023-08-30T07:45:14;18.85;;;3.60;;
33840;SDS011;20142;28.494;-16.312;2023-08-30T07:50:16;26.17;;;4.53;;
33840;SDS011;20142;28.494;-16.312;2023-08-30T07:55:18;24.85;;;4.28;;
33840;SDS011;20142;28.494;-16.312;2023-08-30T08:00:20;25.45;;;4.10;;
33840;SDS011;20142;28.494;-16.312;2023-08-30T08:05:21;21.92;;;4.40;;
33840;SDS011;20142;28.494;-16.312;2023-08-30T08:10:23;21.73;;;4.00;;
33840;SDS011;20142;28.494;-16.312;2023-08-30T08:15:25;24.73;;;4.05;;
33840;SDS011;20142;28.494;-16.312;2023-08-30T08:20:28;25.63;;;3.83;;
33840;SDS011;20142;28.494;-16.312;2023-08-30T08:25:31;21.85;;;3.55;;
33840;SDS011;20142;28.494;-16.312;2023-08-30T08:30:32;21.92;;;3.60;;
33840;SDS011;20142;28.494;-16.312;2023-08-30T08:35:34;20.15;;;4.05;;
33840;SDS011;20142;28.494;-16.312;2023-08-30T08:40:37;26.77;;;4.13;;
33840;SDS011;20142;28.494;-16.312;2023-08-30T08:45:39;19.80;;;3.25;;
33840;SDS011;20142;28.494;-16.312;2023-08-30T08:50:41;19.85;;;3.30;;
33840;SDS011;20142;28.494;-16.312;2023-08-30T08:55:44;19.05;;;3.80;;
33840;SDS011;20142;28.494;-16.312;2023-08-30T09:00:47;16.02;;;3.00;;
33840;SDS011;20142;28.494;-16.312;2023-08-30T09:05:48;23.83;;;3.88;;
33840;SDS011;20142;28.494;-16.312;2023-08-30T09:10:52;20.23;;;3.75;;
33840;SDS011;20142;28.494;-16.312;2023-08-30T09:15:53;18.30;;;3.65;;
33840;SDS011;20142;28.494;-16.312;2023-08-30T09:21:05;22.48;;;3.53;;
33840;SDS011;20142;28.494;-16.312;2023-08-30T09:26:08;19.05;;;3.50;;
33840;SDS011;20142;28.494;-16.312;2023-08-30T09:31:16;20.90;;;4.35;;
33840;SDS011;20142;28.494;-16.312;2023-08-30T09:36:21;17.55;;;3.15;;
33840;SDS011;20142;28.494;-16.312;2023-08-30T09:41:23;22.77;;;3.53;;
33840;SDS011;20142;28.494;-16.312;2023-08-30T09:46:26;15.55;;;3.40;;
33840;SDS011;20142;28.494;-16.312;2023-08-30T09:51:28;18.75;;;3.15;;
33840;SDS011;20142;28.494;-16.312;2023-08-30T09:56:31;19.52;;;2.92;;
33840;SDS011;20142;28.494;-16.312;2023-08-30T10:01:36;18.77;;;3.28;;
33840;SDS011;20142;28.494;-16.312;2023-08-30T10:06:40;23.52;;;3.40;;
33840;SDS011;20142;28.494;-16.312;2023-08-30T10:11:42;15.60;;;3.05;;
33840;SDS011;20142;28.494;-16.312;2023-08-30T10:16:47;14.27;;;3.65;;
33840;SDS011;20142;28.494;-16.312;2023-08-30T10:27:06;11.93;;;3.03;;
33840;SDS011;20142;28.494;-16.312;2023-08-30T10:32:09;16.42;;;2.70;;
33840;SDS011;20142;28.494;-16.312;2023-08-30T10:37:11;18.90;;;3.35;;
33840;SDS011;20142;28.494;-16.312;2023-08-30T10:42:13;17.45;;;3.50;;
33840;SDS011;20142;28.494;-16.312;2023-08-30T10:52:29;23.42;;;3.15;;
33840;SDS011;20142;28.494;-16.312;2023-08-30T10:57:31;18.25;;;3.33;;
33840;SDS011;20142;28.494;-16.312;2023-08-30T11:02:34;17.30;;;3.30;;
33840;SDS011;20142;28.494;-16.312;2023-08-30T11:07:39;13.48;;;3.10;;
33840;SDS011;20142;28.494;-16.312;2023-08-30T11:12:41;15.68;;;3.35;;
33840;SDS011;20142;28.494;-16.312;2023-08-30T11:17:46;16.45;;;2.92;;
33840;SDS011;20142;28.494;-16.312;2023-08-30T11:22:49;15.25;;;3.10;;
33840;SDS011;20142;28.494;-16.312;2023-08-30T11:27:50;13.98;;;2.90;;
33840;SDS011;20142;28.494;-16.312;2023-08-30T11:33:05;12.63;;;2.50;;
33840;SDS011;20142;28.494;-16.312;2023-08-30T11:38:07;16.58;;;2.72;;
33840;SDS011;20142;28.494;-16.312;2023-08-30T11:43:09;13.77;;;2.50;;
33840;SDS011;20142;28.494;-16.312;2023-08-30T11:48:11;15.88;;;3.45;;
33840;SDS011;20142;28.494;-16.312;2023-08-30T11:53:13;17.25;;;3.00;;
33840;SDS011;20142;28.494;-16.312;2023-08-30T11:58:15;17.00;;;2.97;;
33840;SDS011;20142;28.494;-16.312;2023-08-30T12:03:19;18.17;;;3.47;;
33840;SDS011;20142;28.494;-16.312;2023-08-30T12:08:28;13.95;;;3.30;;
33840;SDS011;20142;28.494;-16.312;2023-08-30T12:13:32;12.52;;;2.80;;
33840;SDS011;20142;28.494;-16.312;2023-08-30T12:18:35;13.73;;;2.40;;
33840;SDS011;20142;28.494;-16.312;2023-08-30T12:23:36;13.38;;;2.47;;
33840;SDS011;20142;28.494;-16.312;2023-08-30T12:28:38;13.88;;;2.90;;
33840;SDS011;20142;28.494;-16.312;2023-08-30T12:33:42;12.40;;;2.45;;
33840;SDS011;20142;28.494;-16.312;2023-08-30T12:38:44;16.52;;;2.65;;
33840;SDS011;20142;28.494;-16.312;2023-08-30T12:43:46;13.48;;;2.80;;
33840;SDS011;20142;28.494;-16.312;2023-08-30T12:48:47;14.75;;;2.28;;
33840;SDS011;20142;28.494;-16.312;2023-08-30T12:53:49;16.17;;;2.42;;
33840;SDS011;20142;28.494;-16.312;2023-08-30T12:58:50;14.98;;;2.30;;
33840;SDS011;20142;28.494;-16.312;2023-08-30T13:03:53;10.60;;;2.13;;
33840;SDS011;20142;28.494;-16.312;2023-08-30T13:08:54;10.70;;;2.20;;
33840;SDS011;20142;28.494;-16.312;2023-08-30T13:13:56;15.68;;;2.42;;
33840;SDS011;20142;28.494;-16.312;2023-08-30T13:18:58;13.90;;;2.60;;
33840;SDS011;20142;28.494;-16.312;2023-08-30T13:24:00;9.52;;;2.28;;
33840;SDS011;20142;28.494;-16.312;2023-08-30T13:29:03;12.13;;;2.72;;
33840;SDS011;20142;28.494;-16.312;2023-08-30T13:34:05;11.95;;;1.95;;
33840;SDS011;20142;28.494;-16.312;2023-08-30T13:39:07;13.18;;;2.60;;
33840;SDS011;20142;28.494;-16.312;2023-08-30T13:44:08;7.88;;;2.30;;
33840;SDS011;20142;28.494;-16.312;2023-08-30T13:49:10;10.25;;;2.63;;
33840;SDS011;20142;28.494;-16.312;2023-08-30T13:54:12;8.98;;;2.55;;
33840;SDS011;20142;28.494;-16.312;2023-08-30T13:59:13;10.70;;;2.10;;
33840;SDS011;20142;28.494;-16.312;2023-08-30T14:04:15;12.38;;;2.30;;
33840;SDS011;20142;28.494;-16.312;2023-08-30T14:09:18;14.27;;;2.75;;
33840;SDS011;20142;28.494;-16.312;2023-08-30T14:14:20;12.35;;;2.53;;
33840;SDS011;20142;28.494;-16.312;2023-08-30T14:19:22;12.90;;;2.67;;
33840;SDS011;20142;28.494;-16.312;2023-08-30T14:24:24;12.20;;;2.72;;
33840;SDS011;20142;28.494;-16.312;2023-08-30T14:29:26;11.32;;;2.38;;
33840;SDS011;20142;28.494;-16.312;2023-08-30T14:34:27;17.48;;;3.13;;
33840;SDS011;20142;28.494;-16.312;2023-08-30T14:39:29;11.68;;;2.65;;
33840;SDS011;20142;28.494;-16.312;2023-08-30T14:44:31;12.02;;;2.90;;
33840;SDS011;20142;28.494;-16.312;2023-08-30T14:49:33;8.63;;;2.40;;
33840;SDS011;20142;28.494;-16.312;2023-08-30T14:54:34;15.50;;;2.88;;
33840;SDS011;20142;28.494;-16.312;2023-08-30T14:59:36;12.73;;;2.85;;
33840;SDS011;20142;28.494;-16.312;2023-08-30T15:04:39;9.65;;;2.67;;
33840;SDS011;20142;28.494;-16.312;2023-08-30T15:09:41;12.85;;;2.60;;
33840;SDS011;20142;28.494;-16.312;2023-08-30T15:14:43;13.32;;;3.17;;
33840;SDS011;20142;28.494;-16.312;2023-08-30T15:19:45;8.07;;;2.33;;
33840;SDS011;20142;28.494;-16.312;2023-08-30T15:24:46;9.52;;;2.53;;
33840;SDS011;20142;28.494;-16.312;2023-08-30T15:29:48;11.07;;;2.53;;
33840;SDS011;20142;28.494;-16.312;2023-08-30T15:34:55;9.18;;;2.83;;
33840;SDS011;20142;28.494;-16.312;2023-08-30T15:40:00;8.55;;;2.50;;
33840;SDS011;20142;28.494;-16.312;2023-08-30T15:45:05;7.45;;;2.30;;
33840;SDS011;20142;28.494;-16.312;2023-08-30T15:50:07;9.10;;;2.33;;
33840;SDS011;20142;28.494;-16.312;2023-08-30T15:55:09;6.10;;;1.92;;
33840;SDS011;20142;28.494;-16.312;2023-08-30T16:00:11;6.85;;;2.13;;
33840;SDS011;20142;28.494;-16.312;2023-08-30T16:05:14;8.98;;;2.53;;
33840;SDS011;20142;28.494;-16.312;2023-08-30T16:10:15;9.13;;;2.22;;
33840;SDS011;20142;28.494;-16.312;2023-08-30T16:15:17;8.50;;;2.28;;
33840;SDS011;20142;28.494;-16.312;2023-08-30T16:20:20;13.90;;;2.92;;
33840;SDS011;20142;28.494;-16.312;2023-08-30T16:25:24;10.57;;;2.83;;
33840;SDS011;20142;28.494;-16.312;2023-08-30T16:30:27;10.38;;;2.67;;
33840;SDS011;20142;28.494;-16.312;2023-08-30T16:35:29;8.88;;;2.60;;
33840;SDS011;20142;28.494;-16.312;2023-08-30T16:40:31;10.43;;;2.70;;
33840;SDS011;20142;28.494;-16.312;2023-08-30T16:45:33;8.85;;;2.65;;
33840;SDS011;20142;28.494;-16.312;2023-08-30T16:50:34;10.90;;;3.00;;
33840;SDS011;20142;28.494;-16.312;2023-08-30T16:55:36;10.02;;;2.97;;
33840;SDS011;20142;28.494;-16.312;2023-08-30T17:00:38;12.10;;;2.90;;
33840;SDS011;20142;28.494;-16.312;2023-08-30T17:05:41;9.52;;;3.13;;
33840;SDS011;20142;28.494;-16.312;2023-08-30T17:10:43;12.57;;;3.25;;
33840;SDS011;20142;28.494;-16.312;2023-08-30T17:15:44;7.80;;;2.47;;
33840;SDS011;20142;28.494;-16.312;2023-08-30T17:20:47;9.20;;;2.40;;
33840;SDS011;20142;28.494;-16.312;2023-08-30T17:25:51;12.27;;;2.47;;
33840;SDS011;20142;28.494;-16.312;2023-08-30T17:30:53;8.07;;;1.80;;
33840;SDS011;20142;28.494;-16.312;2023-08-30T17:35:57;9.48;;;2.20;;
33840;SDS011;20142;28.494;-16.312;2023-08-30T17:41:06;9.05;;;2.55;;
33840;SDS011;20142;28.494;-16.312;2023-08-30T17:46:10;8.43;;;2.22;;
33840;SDS011;20142;28.494;-16.312;2023-08-30T17:51:12;9.20;;;2.65;;
33840;SDS011;20142;28.494;-16.312;2023-08-30T17:56:14;12.90;;;2.42;;
33840;SDS011;20142;28.494;-16.312;2023-08-30T18:01:22;13.23;;;2.70;;
33840;SDS011;20142;28.494;-16.312;2023-08-30T18:06:27;12.65;;;2.25;;
33840;SDS011;20142;28.494;-16.312;2023-08-30T18:11:29;9.90;;;1.83;;
33840;SDS011;20142;28.494;-16.312;2023-08-30T18:16:32;15.73;;;2.60;;
33840;SDS011;20142;28.494;-16.312;2023-08-30T18:21:33;8.20;;;2.05;;
33840;SDS011;20142;28.494;-16.312;2023-08-30T18:26:35;7.40;;;2.10;;
33840;SDS011;20142;28.494;-16.312;2023-08-30T18:31:37;9.80;;;2.05;;
33840;SDS011;20142;28.494;-16.312;2023-08-30T18:36:39;8.52;;;2.38;;
33840;SDS011;20142;28.494;-16.312;2023-08-30T18:41:41;10.68;;;2.30;;
33840;SDS011;20142;28.494;-16.312;2023-08-30T18:46:43;7.40;;;2.08;;
33840;SDS011;20142;28.494;-16.312;2023-08-30T18:51:45;9.57;;;2.20;;
33840;SDS011;20142;28.494;-16.312;2023-08-30T18:56:47;7.50;;;1.88;;
33840;SDS011;20142;28.494;-16.312;2023-08-30T19:01:48;9.77;;;2.22;;
33840;SDS011;20142;28.494;-16.312;2023-08-30T19:06:51;11.48;;;2.40;;
33840;SDS011;20142;28.494;-16.312;2023-08-30T19:11:52;14.13;;;2.67;;
33840;SDS011;20142;28.494;-16.312;2023-08-30T19:16:54;7.97;;;2.10;;
33840;SDS011;20142;28.494;-16.312;2023-08-30T19:21:56;10.95;;;2.35;;
33840;SDS011;20142;28.494;-16.312;2023-08-30T19:26:58;16.55;;;2.83;;
33840;SDS011;20142;28.494;-16.312;2023-08-30T19:31:59;14.00;;;2.75;;
33840;SDS011;20142;28.494;-16.312;2023-08-30T19:37:01;16.02;;;2.78;;
33840;SDS011;20142;28.494;-16.312;2023-08-30T19:42:03;19.05;;;2.53;;
33840;SDS011;20142;28.494;-16.312;2023-08-30T19:47:05;16.33;;;3.20;;
33840;SDS011;20142;28.494;-16.312;2023-08-30T19:52:09;9.57;;;2.67;;
33840;SDS011;20142;28.494;-16.312;2023-08-30T19:57:11;12.02;;;2.63;;
33840;SDS011;20142;28.494;-16.312;2023-08-30T20:02:14;10.60;;;2.50;;
33840;SDS011;20142;28.494;-16.312;2023-08-30T20:07:16;14.43;;;2.38;;
33840;SDS011;20142;28.494;-16.312;2023-08-30T20:12:19;14.40;;;2.97;;
33840;SDS011;20142;28.494;-16.312;2023-08-30T20:17:21;24.20;;;2.67;;
33840;SDS011;20142;28.494;-16.312;2023-08-30T20:22:23;13.50;;;2.83;;
33840;SDS011;20142;28.494;-16.312;2023-08-30T20:27:26;10.82;;;2.58;;
33840;SDS011;20142;28.494;-16.312;2023-08-30T20:32:27;8.50;;;2.50;;
33840;SDS011;20142;28.494;-16.312;2023-08-30T20:37:29;15.15;;;2.47;;
33840;SDS011;20142;28.494;-16.312;2023-08-30T20:42:33;11.32;;;2.70;;
33840;SDS011;20142;28.494;-16.312;2023-08-30T20:47:36;16.00;;;2.88;;
33840;SDS011;20142;28.494;-16.312;2023-08-30T20:52:39;14.02;;;2.53;;
33840;SDS011;20142;28.494;-16.312;2023-08-30T20:57:41;11.32;;;2.65;;
33840;SDS011;20142;28.494;-16.312;2023-08-30T21:02:42;13.13;;;2.45;;
33840;SDS011;20142;28.494;-16.312;2023-08-30T21:07:44;12.80;;;2.65;;
33840;SDS011;20142;28.494;-16.312;2023-08-30T21:12:46;15.13;;;2.95;;
33840;SDS011;20142;28.494;-16.312;2023-08-30T21:17:47;11.43;;;2.10;;
33840;SDS011;20142;28.494;-16.312;2023-08-30T21:22:51;16.73;;;2.63;;
33840;SDS011;20142;28.494;-16.312;2023-08-30T21:27:55;13.00;;;2.45;;
33840;SDS011;20142;28.494;-16.312;2023-08-30T21:32:57;9.80;;;2.45;;
33840;SDS011;20142;28.494;-16.312;2023-08-30T21:37:59;15.68;;;2.55;;
33840;SDS011;20142;28.494;-16.312;2023-08-30T21:43:00;12.77;;;2.95;;
33840;SDS011;20142;28.494;-16.312;2023-08-30T21:48:02;10.25;;;2.15;;
33840;SDS011;20142;28.494;-16.312;2023-08-30T21:53:05;13.30;;;2.22;;
33840;SDS011;20142;28.494;-16.312;2023-08-30T21:58:07;11.23;;;2.08;;
33840;SDS011;20142;28.494;-16.312;2023-08-30T22:03:08;9.95;;;2.15;;
33840;SDS011;20142;28.494;-16.312;2023-08-30T22:08:10;10.95;;;2.40;;
33840;SDS011;20142;28.494;-16.312;2023-08-30T22:13:12;12.43;;;2.08;;
33840;SDS011;20142;28.494;-16.312;2023-08-30T22:18:13;10.20;;;2.33;;
33840;SDS011;20142;28.494;-16.312;2023-08-30T22:23:15;8.55;;;1.77;;
33840;SDS011;20142;28.494;-16.312;2023-08-30T22:28:18;8.73;;;1.70;;
33840;SDS011;20142;28.494;-16.312;2023-08-30T22:33:20;7.88;;;1.83;;
33840;SDS011;20142;28.494;-16.312;2023-08-30T22:38:22;11.13;;;2.20;;
33840;SDS011;20142;28.494;-16.312;2023-08-30T22:43:23;6.65;;;1.70;;
33840;SDS011;20142;28.494;-16.312;2023-08-30T22:48:25;11.48;;;2.20;;
33840;SDS011;20142;28.494;-16.312;2023-08-30T22:53:29;12.60;;;2.00;;
33840;SDS011;20142;28.494;-16.312;2023-08-30T22:58:32;9.57;;;1.77;;
33840;SDS011;20142;28.494;-16.312;2023-08-30T23:03:34;10.48;;;1.63;;
33840;SDS011;20142;28.494;-16.312;2023-08-30T23:08:36;13.75;;;2.25;;
33840;SDS011;20142;28.494;-16.312;2023-08-30T23:13:37;10.45;;;1.95;;
33840;SDS011;20142;28.494;-16.312;2023-08-30T23:18:39;9.75;;;2.35;;
33840;SDS011;20142;28.494;-16.312;2023-08-30T23:23:41;8.60;;;1.92;;
33840;SDS011;20142;28.494;-16.312;2023-08-30T23:28:43;12.30;;;2.25;;
33840;SDS011;20142;28.494;-16.312;2023-08-30T23:33:45;9.15;;;1.52;;
33840;SDS011;20142;28.494;-16.312;2023-08-30T23:38:47;7.22;;;1.40;;
33840;SDS011;20142;28.494;-16.312;2023-08-30T23:43:48;8.57;;;1.95;;
33840;SDS011;20142;28.494;-16.312;2023-08-30T23:48:50;8.35;;;1.80;;
33840;SDS011;20142;28.494;-16.312;2023-08-30T23:53:53;6.88;;;1.23;;
33840;SDS011;20142;28.494;-16.312;2023-08-30T23:58:55;7.40;;;2.38;;
